sensor_id;sensor_type;location;lat;lon;timestamp;P1;durP1;ratioP1;P2;durP2;ratioP2
5823;SDS011;2938;52.254;12.988;2022-11-21T00:00:17;37.42;;;21.30;;
5823;SDS011;2938;52.254;12.988;2022-11-21T00:02:43;39.05;;;20.17;;
5823;SDS011;2938;52.254;12.988;2022-11-21T00:05:08;44.55;;;21.98;;
5823;SDS011;2938;52.254;12.988;2022-11-21T00:07:33;31.92;;;19.52;;
5823;SDS011;2938;52.254;12.988;2022-11-21T00:09:59;37.55;;;21.00;;
5823;SDS011;2938;52.254;12.988;2022-11-21T00:12:24;34.08;;;21.20;;
5823;SDS011;2938;52.254;12.988;2022-11-21T00:14:49;34.13;;;21.27;;
5823;SDS011;2938;52.254;12.988;2022-11-21T00:17:15;42.03;;;21.08;;
5823;SDS011;2938;52.254;12.988;2022-11-21T00:19:40;35.78;;;21.17;;
5823;SDS011;2938;52.254;12.988;2022-11-21T00:22:06;36.50;;;19.50;;
5823;SDS011;2938;52.254;12.988;2022-11-21T00:24:31;40.35;;;20.75;;
5823;SDS011;2938;52.254;12.988;2022-11-21T00:26:56;40.30;;;20.88;;
5823;SDS011;2938;52.254;12.988;2022-11-21T00:29:22;41.33;;;20.80;;
5823;SDS011;2938;52.254;12.988;2022-11-21T00:31:48;36.92;;;19.00;;
5823;SDS011;2938;52.254;12.988;2022-11-21T00:34:13;45.75;;;21.75;;
5823;SDS011;2938;52.254;12.988;2022-11-21T00:36:40;39.22;;;22.30;;
5823;SDS011;2938;52.254;12.988;2022-11-21T00:39:06;35.78;;;20.65;;
5823;SDS011;2938;52.254;12.988;2022-11-21T00:44:03;36.17;;;20.48;;
5823;SDS011;2938;52.254;12.988;2022-11-21T00:46:29;44.13;;;21.75;;
5823;SDS011;2938;52.254;12.988;2022-11-21T00:48:57;34.22;;;21.15;;
5823;SDS011;2938;52.254;12.988;2022-11-21T00:51:23;43.28;;;21.88;;
5823;SDS011;2938;52.254;12.988;2022-11-21T00:53:48;40.17;;;22.48;;
5823;SDS011;2938;52.254;12.988;2022-11-21T00:56:13;33.95;;;20.08;;
5823;SDS011;2938;52.254;12.988;2022-11-21T00:58:39;41.22;;;21.52;;
5823;SDS011;2938;52.254;12.988;2022-11-21T01:01:05;37.80;;;20.42;;
5823;SDS011;2938;52.254;12.988;2022-11-21T01:03:37;35.28;;;20.38;;
5823;SDS011;2938;52.254;12.988;2022-11-21T01:06:06;32.72;;;20.35;;
5823;SDS011;2938;52.254;12.988;2022-11-21T01:08:34;40.83;;;22.20;;
5823;SDS011;2938;52.254;12.988;2022-11-21T01:11:01;39.40;;;21.50;;
5823;SDS011;2938;52.254;12.988;2022-11-21T01:13:30;40.45;;;20.95;;
5823;SDS011;2938;52.254;12.988;2022-11-21T01:15:56;33.90;;;19.88;;
5823;SDS011;2938;52.254;12.988;2022-11-21T01:18:27;45.35;;;23.77;;
5823;SDS011;2938;52.254;12.988;2022-11-21T01:20:52;42.47;;;22.55;;
5823;SDS011;2938;52.254;12.988;2022-11-21T01:23:17;37.90;;;21.95;;
5823;SDS011;2938;52.254;12.988;2022-11-21T01:25:43;38.40;;;22.35;;
5823;SDS011;2938;52.254;12.988;2022-11-21T01:28:08;42.20;;;22.50;;
5823;SDS011;2938;52.254;12.988;2022-11-21T01:30:34;36.92;;;20.80;;
5823;SDS011;2938;52.254;12.988;2022-11-21T01:32:59;39.35;;;21.08;;
5823;SDS011;2938;52.254;12.988;2022-11-21T01:35:24;38.58;;;23.75;;
5823;SDS011;2938;52.254;12.988;2022-11-21T01:37:49;34.40;;;22.40;;
5823;SDS011;2938;52.254;12.988;2022-11-21T01:40:15;35.88;;;20.75;;
5823;SDS011;2938;52.254;12.988;2022-11-21T01:42:52;45.85;;;23.08;;
5823;SDS011;2938;52.254;12.988;2022-11-21T01:48:34;39.72;;;21.10;;
5823;SDS011;2938;52.254;12.988;2022-11-21T01:51:02;39.13;;;21.65;;
5823;SDS011;2938;52.254;12.988;2022-11-21T01:53:32;35.67;;;20.65;;
5823;SDS011;2938;52.254;12.988;2022-11-21T01:55:58;42.30;;;21.98;;
5823;SDS011;2938;52.254;12.988;2022-11-21T01:58:24;36.95;;;22.38;;
5823;SDS011;2938;52.254;12.988;2022-11-21T02:00:50;42.08;;;21.35;;
5823;SDS011;2938;52.254;12.988;2022-11-21T02:03:16;38.45;;;22.40;;
5823;SDS011;2938;52.254;12.988;2022-11-21T02:05:45;41.55;;;23.20;;
5823;SDS011;2938;52.254;12.988;2022-11-21T02:08:17;45.50;;;22.83;;
5823;SDS011;2938;52.254;12.988;2022-11-21T02:10:49;40.83;;;21.88;;
5823;SDS011;2938;52.254;12.988;2022-11-21T02:13:18;32.72;;;20.60;;
5823;SDS011;2938;52.254;12.988;2022-11-21T02:15:46;40.00;;;21.58;;
5823;SDS011;2938;52.254;12.988;2022-11-21T02:18:13;40.17;;;22.77;;
5823;SDS011;2938;52.254;12.988;2022-11-21T02:20:38;44.42;;;24.65;;
5823;SDS011;2938;52.254;12.988;2022-11-21T02:23:17;37.20;;;22.10;;
5823;SDS011;2938;52.254;12.988;2022-11-21T02:25:43;37.28;;;20.75;;
5823;SDS011;2938;52.254;12.988;2022-11-21T02:28:13;36.53;;;21.10;;
5823;SDS011;2938;52.254;12.988;2022-11-21T02:30:40;44.17;;;24.38;;
5823;SDS011;2938;52.254;12.988;2022-11-21T02:33:06;36.80;;;21.08;;
5823;SDS011;2938;52.254;12.988;2022-11-21T02:35:32;43.13;;;22.33;;
5823;SDS011;2938;52.254;12.988;2022-11-21T02:38:16;37.50;;;21.20;;
5823;SDS011;2938;52.254;12.988;2022-11-21T02:40:50;44.90;;;23.92;;
5823;SDS011;2938;52.254;12.988;2022-11-21T02:43:22;41.83;;;21.52;;
5823;SDS011;2938;52.254;12.988;2022-11-21T02:45:49;41.65;;;22.83;;
5823;SDS011;2938;52.254;12.988;2022-11-21T02:48:15;40.40;;;21.88;;
5823;SDS011;2938;52.254;12.988;2022-11-21T02:50:41;41.65;;;21.83;;
5823;SDS011;2938;52.254;12.988;2022-11-21T02:53:09;38.88;;;22.10;;
5823;SDS011;2938;52.254;12.988;2022-11-21T02:55:36;42.75;;;22.95;;
5823;SDS011;2938;52.254;12.988;2022-11-21T02:58:02;41.88;;;22.02;;
5823;SDS011;2938;52.254;12.988;2022-11-21T03:00:27;40.90;;;22.50;;
5823;SDS011;2938;52.254;12.988;2022-11-21T03:02:53;45.42;;;22.42;;
5823;SDS011;2938;52.254;12.988;2022-11-21T03:05:19;38.95;;;21.90;;
5823;SDS011;2938;52.254;12.988;2022-11-21T03:07:45;43.97;;;22.05;;
5823;SDS011;2938;52.254;12.988;2022-11-21T03:10:11;42.50;;;22.08;;
5823;SDS011;2938;52.254;12.988;2022-11-21T03:12:37;42.92;;;22.95;;
5823;SDS011;2938;52.254;12.988;2022-11-21T03:15:03;37.15;;;23.42;;
5823;SDS011;2938;52.254;12.988;2022-11-21T03:17:29;41.47;;;21.88;;
5823;SDS011;2938;52.254;12.988;2022-11-21T03:19:54;40.25;;;24.63;;
5823;SDS011;2938;52.254;12.988;2022-11-21T03:22:20;42.97;;;23.17;;
5823;SDS011;2938;52.254;12.988;2022-11-21T03:24:45;36.53;;;20.42;;
5823;SDS011;2938;52.254;12.988;2022-11-21T03:27:10;39.50;;;22.23;;
5823;SDS011;2938;52.254;12.988;2022-11-21T03:29:36;48.00;;;24.67;;
5823;SDS011;2938;52.254;12.988;2022-11-21T03:32:01;44.72;;;24.23;;
5823;SDS011;2938;52.254;12.988;2022-11-21T03:34:26;39.95;;;22.38;;
5823;SDS011;2938;52.254;12.988;2022-11-21T03:36:52;38.63;;;18.92;;
5823;SDS011;2938;52.254;12.988;2022-11-21T03:39:17;39.92;;;22.83;;
5823;SDS011;2938;52.254;12.988;2022-11-21T03:41:43;37.15;;;22.30;;
5823;SDS011;2938;52.254;12.988;2022-11-21T03:44:09;43.60;;;23.00;;
5823;SDS011;2938;52.254;12.988;2022-11-21T03:46:35;41.10;;;20.88;;
5823;SDS011;2938;52.254;12.988;2022-11-21T03:49:05;39.17;;;22.52;;
5823;SDS011;2938;52.254;12.988;2022-11-21T03:51:31;50.92;;;24.73;;
5823;SDS011;2938;52.254;12.988;2022-11-21T03:53:57;44.83;;;23.23;;
5823;SDS011;2938;52.254;12.988;2022-11-21T03:56:22;46.45;;;21.85;;
5823;SDS011;2938;52.254;12.988;2022-11-21T03:58:48;47.10;;;25.92;;
5823;SDS011;2938;52.254;12.988;2022-11-21T04:01:14;43.65;;;24.08;;
5823;SDS011;2938;52.254;12.988;2022-11-21T04:03:40;35.08;;;21.38;;
5823;SDS011;2938;52.254;12.988;2022-11-21T04:06:06;43.08;;;22.85;;
5823;SDS011;2938;52.254;12.988;2022-11-21T04:08:31;42.72;;;22.50;;
5823;SDS011;2938;52.254;12.988;2022-11-21T04:10:57;41.38;;;22.38;;
5823;SDS011;2938;52.254;12.988;2022-11-21T04:13:22;38.85;;;21.50;;
5823;SDS011;2938;52.254;12.988;2022-11-21T04:15:48;40.17;;;25.00;;
5823;SDS011;2938;52.254;12.988;2022-11-21T04:18:13;41.40;;;23.15;;
5823;SDS011;2938;52.254;12.988;2022-11-21T04:20:39;43.63;;;24.88;;
5823;SDS011;2938;52.254;12.988;2022-11-21T04:23:04;43.90;;;21.95;;
5823;SDS011;2938;52.254;12.988;2022-11-21T04:25:30;42.45;;;22.75;;
5823;SDS011;2938;52.254;12.988;2022-11-21T04:27:56;37.20;;;23.25;;
5823;SDS011;2938;52.254;12.988;2022-11-21T04:30:22;44.13;;;23.17;;
5823;SDS011;2938;52.254;12.988;2022-11-21T04:32:49;44.03;;;24.35;;
5823;SDS011;2938;52.254;12.988;2022-11-21T04:35:14;45.38;;;24.98;;
5823;SDS011;2938;52.254;12.988;2022-11-21T04:37:40;44.80;;;23.63;;
5823;SDS011;2938;52.254;12.988;2022-11-21T04:40:05;39.90;;;24.90;;
5823;SDS011;2938;52.254;12.988;2022-11-21T04:42:31;45.90;;;25.25;;
5823;SDS011;2938;52.254;12.988;2022-11-21T04:44:56;41.15;;;23.25;;
5823;SDS011;2938;52.254;12.988;2022-11-21T04:47:22;42.50;;;24.40;;
5823;SDS011;2938;52.254;12.988;2022-11-21T04:49:47;45.33;;;25.48;;
5823;SDS011;2938;52.254;12.988;2022-11-21T04:52:12;43.53;;;23.58;;
5823;SDS011;2938;52.254;12.988;2022-11-21T04:54:38;44.78;;;22.73;;
5823;SDS011;2938;52.254;12.988;2022-11-21T04:57:03;41.25;;;23.40;;
5823;SDS011;2938;52.254;12.988;2022-11-21T04:59:28;42.10;;;25.08;;
5823;SDS011;2938;52.254;12.988;2022-11-21T05:01:54;42.00;;;22.70;;
5823;SDS011;2938;52.254;12.988;2022-11-21T05:04:22;46.70;;;25.23;;
5823;SDS011;2938;52.254;12.988;2022-11-21T05:06:47;42.47;;;23.48;;
5823;SDS011;2938;52.254;12.988;2022-11-21T05:09:12;40.50;;;21.50;;
5823;SDS011;2938;52.254;12.988;2022-11-21T05:11:38;39.53;;;22.13;;
5823;SDS011;2938;52.254;12.988;2022-11-21T05:14:22;42.17;;;21.95;;
5823;SDS011;2938;52.254;12.988;2022-11-21T05:16:50;47.35;;;23.98;;
5823;SDS011;2938;52.254;12.988;2022-11-21T05:19:15;37.90;;;21.38;;
5823;SDS011;2938;52.254;12.988;2022-11-21T05:21:41;40.70;;;23.40;;
5823;SDS011;2938;52.254;12.988;2022-11-21T05:24:06;45.13;;;24.13;;
5823;SDS011;2938;52.254;12.988;2022-11-21T05:26:32;43.70;;;22.30;;
5823;SDS011;2938;52.254;12.988;2022-11-21T05:28:57;49.03;;;21.23;;
5823;SDS011;2938;52.254;12.988;2022-11-21T05:31:22;38.20;;;22.08;;
5823;SDS011;2938;52.254;12.988;2022-11-21T05:33:48;43.47;;;22.33;;
5823;SDS011;2938;52.254;12.988;2022-11-21T05:36:13;41.67;;;22.35;;
5823;SDS011;2938;52.254;12.988;2022-11-21T05:38:38;47.60;;;23.63;;
5823;SDS011;2938;52.254;12.988;2022-11-21T05:41:04;41.33;;;22.90;;
5823;SDS011;2938;52.254;12.988;2022-11-21T05:43:29;37.38;;;22.55;;
5823;SDS011;2938;52.254;12.988;2022-11-21T05:46:10;39.03;;;20.98;;
5823;SDS011;2938;52.254;12.988;2022-11-21T05:48:36;43.90;;;22.13;;
5823;SDS011;2938;52.254;12.988;2022-11-21T05:51:02;42.83;;;22.58;;
5823;SDS011;2938;52.254;12.988;2022-11-21T05:53:28;41.83;;;23.33;;
5823;SDS011;2938;52.254;12.988;2022-11-21T05:55:53;46.80;;;20.85;;
5823;SDS011;2938;52.254;12.988;2022-11-21T05:58:18;41.97;;;23.80;;
5823;SDS011;2938;52.254;12.988;2022-11-21T06:00:44;43.53;;;21.77;;
5823;SDS011;2938;52.254;12.988;2022-11-21T06:03:09;40.63;;;21.83;;
5823;SDS011;2938;52.254;12.988;2022-11-21T06:06:03;43.88;;;22.70;;
5823;SDS011;2938;52.254;12.988;2022-11-21T06:08:40;47.67;;;23.60;;
5823;SDS011;2938;52.254;12.988;2022-11-21T06:11:08;39.15;;;22.70;;
5823;SDS011;2938;52.254;12.988;2022-11-21T06:13:34;45.92;;;23.52;;
5823;SDS011;2938;52.254;12.988;2022-11-21T06:16:07;43.45;;;23.15;;
5823;SDS011;2938;52.254;12.988;2022-11-21T06:18:37;42.92;;;23.20;;
5823;SDS011;2938;52.254;12.988;2022-11-21T06:21:05;48.78;;;22.55;;
5823;SDS011;2938;52.254;12.988;2022-11-21T06:23:31;43.78;;;22.73;;
5823;SDS011;2938;52.254;12.988;2022-11-21T06:25:57;38.03;;;21.83;;
5823;SDS011;2938;52.254;12.988;2022-11-21T06:28:24;47.70;;;25.83;;
5823;SDS011;2938;52.254;12.988;2022-11-21T06:30:50;42.28;;;23.45;;
5823;SDS011;2938;52.254;12.988;2022-11-21T06:33:16;44.08;;;23.92;;
5823;SDS011;2938;52.254;12.988;2022-11-21T06:35:41;41.75;;;24.35;;
5823;SDS011;2938;52.254;12.988;2022-11-21T06:38:07;47.40;;;24.15;;
5823;SDS011;2938;52.254;12.988;2022-11-21T06:40:32;41.03;;;22.13;;
5823;SDS011;2938;52.254;12.988;2022-11-21T06:42:58;45.83;;;23.60;;
5823;SDS011;2938;52.254;12.988;2022-11-21T06:45:23;40.75;;;23.35;;
5823;SDS011;2938;52.254;12.988;2022-11-21T06:47:55;32.88;;;17.67;;
5823;SDS011;2938;52.254;12.988;2022-11-21T06:50:20;42.35;;;22.58;;
5823;SDS011;2938;52.254;12.988;2022-11-21T06:52:46;42.75;;;21.23;;
5823;SDS011;2938;52.254;12.988;2022-11-21T06:55:12;38.10;;;22.85;;
5823;SDS011;2938;52.254;12.988;2022-11-21T06:57:37;37.65;;;22.58;;
5823;SDS011;2938;52.254;12.988;2022-11-21T07:00:09;45.13;;;23.42;;
5823;SDS011;2938;52.254;12.988;2022-11-21T07:05:00;36.72;;;20.63;;
5823;SDS011;2938;52.254;12.988;2022-11-21T07:07:28;44.47;;;21.35;;
5823;SDS011;2938;52.254;12.988;2022-11-21T07:09:54;43.25;;;22.80;;
5823;SDS011;2938;52.254;12.988;2022-11-21T07:12:22;41.95;;;23.90;;
5823;SDS011;2938;52.254;12.988;2022-11-21T07:15:09;51.40;;;26.77;;
5823;SDS011;2938;52.254;12.988;2022-11-21T07:17:35;41.70;;;23.40;;
5823;SDS011;2938;52.254;12.988;2022-11-21T07:20:01;46.35;;;24.60;;
5823;SDS011;2938;52.254;12.988;2022-11-21T07:22:27;47.45;;;24.33;;
5823;SDS011;2938;52.254;12.988;2022-11-21T07:24:52;42.10;;;24.02;;
5823;SDS011;2938;52.254;12.988;2022-11-21T07:27:20;41.28;;;25.27;;
5823;SDS011;2938;52.254;12.988;2022-11-21T07:29:46;41.83;;;23.65;;
5823;SDS011;2938;52.254;12.988;2022-11-21T07:32:34;45.67;;;25.92;;
5823;SDS011;2938;52.254;12.988;2022-11-21T07:35:00;40.78;;;20.92;;
5823;SDS011;2938;52.254;12.988;2022-11-21T07:37:27;42.72;;;24.63;;
5823;SDS011;2938;52.254;12.988;2022-11-21T07:39:58;46.58;;;26.45;;
5823;SDS011;2938;52.254;12.988;2022-11-21T07:42:24;37.67;;;17.63;;
5823;SDS011;2938;52.254;12.988;2022-11-21T07:44:49;39.17;;;21.30;;
5823;SDS011;2938;52.254;12.988;2022-11-21T07:47:14;44.45;;;25.25;;
5823;SDS011;2938;52.254;12.988;2022-11-21T07:49:40;44.28;;;24.75;;
5823;SDS011;2938;52.254;12.988;2022-11-21T07:52:13;42.55;;;24.30;;
5823;SDS011;2938;52.254;12.988;2022-11-21T07:54:39;47.97;;;26.57;;
5823;SDS011;2938;52.254;12.988;2022-11-21T07:57:04;46.20;;;26.50;;
5823;SDS011;2938;52.254;12.988;2022-11-21T07:59:29;47.85;;;26.33;;
5823;SDS011;2938;52.254;12.988;2022-11-21T08:01:55;43.55;;;24.52;;
5823;SDS011;2938;52.254;12.988;2022-11-21T08:04:20;36.20;;;23.13;;
5823;SDS011;2938;52.254;12.988;2022-11-21T08:06:47;46.50;;;25.63;;
5823;SDS011;2938;52.254;12.988;2022-11-21T08:09:12;52.08;;;27.15;;
5823;SDS011;2938;52.254;12.988;2022-11-21T08:11:43;50.65;;;25.90;;
5823;SDS011;2938;52.254;12.988;2022-11-21T08:14:08;43.88;;;23.70;;
5823;SDS011;2938;52.254;12.988;2022-11-21T08:16:34;50.17;;;25.42;;
5823;SDS011;2938;52.254;12.988;2022-11-21T08:18:59;44.05;;;24.55;;
5823;SDS011;2938;52.254;12.988;2022-11-21T08:21:25;48.80;;;25.05;;
5823;SDS011;2938;52.254;12.988;2022-11-21T08:23:50;44.60;;;23.52;;
5823;SDS011;2938;52.254;12.988;2022-11-21T08:26:16;47.17;;;26.90;;
5823;SDS011;2938;52.254;12.988;2022-11-21T08:28:41;39.40;;;24.15;;
5823;SDS011;2938;52.254;12.988;2022-11-21T08:31:08;47.50;;;24.27;;
5823;SDS011;2938;52.254;12.988;2022-11-21T08:33:37;38.35;;;24.67;;
5823;SDS011;2938;52.254;12.988;2022-11-21T08:36:05;37.50;;;20.25;;
5823;SDS011;2938;52.254;12.988;2022-11-21T08:38:31;47.22;;;25.75;;
5823;SDS011;2938;52.254;12.988;2022-11-21T08:40:57;54.20;;;26.75;;
5823;SDS011;2938;52.254;12.988;2022-11-21T08:43:41;47.53;;;24.83;;
5823;SDS011;2938;52.254;12.988;2022-11-21T08:46:07;40.47;;;24.52;;
5823;SDS011;2938;52.254;12.988;2022-11-21T08:48:35;41.72;;;23.42;;
5823;SDS011;2938;52.254;12.988;2022-11-21T08:51:00;42.33;;;21.85;;
5823;SDS011;2938;52.254;12.988;2022-11-21T08:53:25;35.42;;;20.70;;
5823;SDS011;2938;52.254;12.988;2022-11-21T08:55:52;42.38;;;23.13;;
5823;SDS011;2938;52.254;12.988;2022-11-21T08:58:19;42.47;;;21.60;;
5823;SDS011;2938;52.254;12.988;2022-11-21T09:00:44;36.38;;;21.15;;
5823;SDS011;2938;52.254;12.988;2022-11-21T09:03:12;38.45;;;19.10;;
5823;SDS011;2938;52.254;12.988;2022-11-21T09:05:41;34.88;;;20.70;;
5823;SDS011;2938;52.254;12.988;2022-11-21T09:08:09;35.15;;;20.23;;
5823;SDS011;2938;52.254;12.988;2022-11-21T09:10:34;28.98;;;18.27;;
5823;SDS011;2938;52.254;12.988;2022-11-21T09:13:00;32.03;;;18.98;;
5823;SDS011;2938;52.254;12.988;2022-11-21T09:15:27;31.10;;;18.65;;
5823;SDS011;2938;52.254;12.988;2022-11-21T09:18:13;31.95;;;19.45;;
5823;SDS011;2938;52.254;12.988;2022-11-21T09:20:39;35.08;;;20.17;;
5823;SDS011;2938;52.254;12.988;2022-11-21T09:23:06;32.83;;;19.13;;
5823;SDS011;2938;52.254;12.988;2022-11-21T09:25:33;36.00;;;20.10;;
5823;SDS011;2938;52.254;12.988;2022-11-21T09:27:59;32.83;;;20.23;;
5823;SDS011;2938;52.254;12.988;2022-11-21T09:30:25;31.30;;;19.10;;
5823;SDS011;2938;52.254;12.988;2022-11-21T09:32:51;37.10;;;17.38;;
5823;SDS011;2938;52.254;12.988;2022-11-21T09:35:16;32.88;;;18.05;;
5823;SDS011;2938;52.254;12.988;2022-11-21T09:37:42;30.05;;;16.00;;
5823;SDS011;2938;52.254;12.988;2022-11-21T09:40:16;27.05;;;16.42;;
5823;SDS011;2938;52.254;12.988;2022-11-21T09:42:47;28.77;;;16.40;;
5823;SDS011;2938;52.254;12.988;2022-11-21T09:45:24;29.40;;;18.90;;
5823;SDS011;2938;52.254;12.988;2022-11-21T09:47:51;26.92;;;16.20;;
5823;SDS011;2938;52.254;12.988;2022-11-21T09:50:28;29.88;;;17.42;;
5823;SDS011;2938;52.254;12.988;2022-11-21T09:53:27;33.55;;;18.00;;
5823;SDS011;2938;52.254;12.988;2022-11-21T10:01:16;39.33;;;19.85;;
5823;SDS011;2938;52.254;12.988;2022-11-21T10:03:43;33.72;;;19.92;;
5823;SDS011;2938;52.254;12.988;2022-11-21T10:11:56;40.65;;;19.73;;
5823;SDS011;2938;52.254;12.988;2022-11-21T10:14:50;37.50;;;21.10;;
5823;SDS011;2938;52.254;12.988;2022-11-21T10:31:21;26.23;;;15.85;;
5823;SDS011;2938;52.254;12.988;2022-11-21T10:33:47;27.85;;;16.95;;
5823;SDS011;2938;52.254;12.988;2022-11-21T10:39:38;27.20;;;16.58;;
5823;SDS011;2938;52.254;12.988;2022-11-21T10:45:14;28.75;;;16.70;;
5823;SDS011;2938;52.254;12.988;2022-11-21T10:47:51;24.55;;;12.95;;
5823;SDS011;2938;52.254;12.988;2022-11-21T10:50:38;24.05;;;14.98;;
5823;SDS011;2938;52.254;12.988;2022-11-21T10:53:21;23.55;;;15.77;;
5823;SDS011;2938;52.254;12.988;2022-11-21T10:56:10;28.42;;;17.17;;
5823;SDS011;2938;52.254;12.988;2022-11-21T11:03:43;28.45;;;17.08;;
5823;SDS011;2938;52.254;12.988;2022-11-21T11:06:09;22.70;;;14.77;;
5823;SDS011;2938;52.254;12.988;2022-11-21T11:08:50;23.50;;;13.90;;
5823;SDS011;2938;52.254;12.988;2022-11-21T11:11:19;24.02;;;14.75;;
5823;SDS011;2938;52.254;12.988;2022-11-21T11:13:58;23.55;;;14.60;;
5823;SDS011;2938;52.254;12.988;2022-11-21T11:16:26;19.73;;;12.07;;
5823;SDS011;2938;52.254;12.988;2022-11-21T11:19:06;23.75;;;14.60;;
5823;SDS011;2938;52.254;12.988;2022-11-21T11:21:42;24.17;;;14.60;;
5823;SDS011;2938;52.254;12.988;2022-11-21T11:26:34;24.97;;;15.17;;
5823;SDS011;2938;52.254;12.988;2022-11-21T11:29:20;21.10;;;13.70;;
5823;SDS011;2938;52.254;12.988;2022-11-21T11:31:51;24.45;;;13.40;;
5823;SDS011;2938;52.254;12.988;2022-11-21T11:34:19;22.85;;;14.70;;
5823;SDS011;2938;52.254;12.988;2022-11-21T11:39:44;22.70;;;12.98;;
5823;SDS011;2938;52.254;12.988;2022-11-21T11:49:03;20.38;;;12.82;;
5823;SDS011;2938;52.254;12.988;2022-11-21T11:51:37;21.65;;;14.55;;
5823;SDS011;2938;52.254;12.988;2022-11-21T11:54:10;17.33;;;11.93;;
5823;SDS011;2938;52.254;12.988;2022-11-21T11:56:38;21.55;;;12.93;;
5823;SDS011;2938;52.254;12.988;2022-11-21T11:59:23;20.33;;;13.82;;
5823;SDS011;2938;52.254;12.988;2022-11-21T12:04:22;21.23;;;12.40;;
5823;SDS011;2938;52.254;12.988;2022-11-21T12:09:51;19.70;;;13.53;;
5823;SDS011;2938;52.254;12.988;2022-11-21T12:13:01;18.52;;;12.45;;
5823;SDS011;2938;52.254;12.988;2022-11-21T12:15:35;22.13;;;11.90;;
5823;SDS011;2938;52.254;12.988;2022-11-21T12:24:02;22.85;;;14.43;;
5823;SDS011;2938;52.254;12.988;2022-11-21T12:29:10;25.25;;;14.52;;
5823;SDS011;2938;52.254;12.988;2022-11-21T12:35:04;24.02;;;14.27;;
5823;SDS011;2938;52.254;12.988;2022-11-21T12:40:41;23.55;;;13.32;;
5823;SDS011;2938;52.254;12.988;2022-11-21T12:43:47;24.77;;;15.73;;
5823;SDS011;2938;52.254;12.988;2022-11-21T12:46:18;25.45;;;15.38;;
5823;SDS011;2938;52.254;12.988;2022-11-21T12:48:56;25.42;;;16.25;;
5823;SDS011;2938;52.254;12.988;2022-11-21T12:51:52;24.63;;;14.60;;
5823;SDS011;2938;52.254;12.988;2022-11-21T12:57:29;26.90;;;15.00;;
5823;SDS011;2938;52.254;12.988;2022-11-21T13:00:19;20.17;;;12.98;;
5823;SDS011;2938;52.254;12.988;2022-11-21T13:05:43;22.83;;;13.23;;
5823;SDS011;2938;52.254;12.988;2022-11-21T13:10:36;23.57;;;12.00;;
5823;SDS011;2938;52.254;12.988;2022-11-21T13:15:57;18.42;;;11.60;;
5823;SDS011;2938;52.254;12.988;2022-11-21T13:18:34;21.33;;;14.73;;
5823;SDS011;2938;52.254;12.988;2022-11-21T13:21:04;16.98;;;11.43;;
5823;SDS011;2938;52.254;12.988;2022-11-21T13:23:36;18.88;;;12.80;;
5823;SDS011;2938;52.254;12.988;2022-11-21T13:28:49;25.17;;;14.75;;
5823;SDS011;2938;52.254;12.988;2022-11-21T13:31:33;26.38;;;13.27;;
5823;SDS011;2938;52.254;12.988;2022-11-21T13:34:00;20.35;;;13.35;;
5823;SDS011;2938;52.254;12.988;2022-11-21T13:52:30;25.23;;;16.30;;
5823;SDS011;2938;52.254;12.988;2022-11-21T13:58:10;27.63;;;17.55;;
5823;SDS011;2938;52.254;12.988;2022-11-21T14:01:05;26.27;;;16.25;;
5823;SDS011;2938;52.254;12.988;2022-11-21T14:11:52;26.58;;;15.38;;
5823;SDS011;2938;52.254;12.988;2022-11-21T14:14:39;29.65;;;17.77;;
5823;SDS011;2938;52.254;12.988;2022-11-21T14:17:14;36.00;;;18.30;;
5823;SDS011;2938;52.254;12.988;2022-11-21T14:20:18;24.45;;;15.93;;
5823;SDS011;2938;52.254;12.988;2022-11-21T14:22:46;30.05;;;17.40;;
5823;SDS011;2938;52.254;12.988;2022-11-21T14:25:22;26.45;;;15.60;;
5823;SDS011;2938;52.254;12.988;2022-11-21T14:27:52;22.15;;;13.80;;
5823;SDS011;2938;52.254;12.988;2022-11-21T14:30:26;27.90;;;17.35;;
5823;SDS011;2938;52.254;12.988;2022-11-21T14:32:52;34.53;;;19.88;;
5823;SDS011;2938;52.254;12.988;2022-11-21T14:35:19;30.73;;;18.35;;
5823;SDS011;2938;52.254;12.988;2022-11-21T14:37:50;29.55;;;17.30;;
5823;SDS011;2938;52.254;12.988;2022-11-21T14:40:20;34.05;;;19.85;;
5823;SDS011;2938;52.254;12.988;2022-11-21T14:42:46;32.33;;;18.25;;
5823;SDS011;2938;52.254;12.988;2022-11-21T14:45:14;32.78;;;19.20;;
5823;SDS011;2938;52.254;12.988;2022-11-21T14:47:47;27.53;;;15.40;;
5823;SDS011;2938;52.254;12.988;2022-11-21T14:52:47;22.23;;;15.13;;
5823;SDS011;2938;52.254;12.988;2022-11-21T14:55:21;30.98;;;18.52;;
5823;SDS011;2938;52.254;12.988;2022-11-21T14:57:49;27.33;;;17.77;;
5823;SDS011;2938;52.254;12.988;2022-11-21T15:00:18;27.75;;;16.67;;
5823;SDS011;2938;52.254;12.988;2022-11-21T15:02:45;26.50;;;17.35;;
5823;SDS011;2938;52.254;12.988;2022-11-21T15:05:14;30.73;;;18.88;;
5823;SDS011;2938;52.254;12.988;2022-11-21T15:07:40;28.27;;;16.50;;
5823;SDS011;2938;52.254;12.988;2022-11-21T15:10:20;29.25;;;17.45;;
5823;SDS011;2938;52.254;12.988;2022-11-21T15:18:05;28.75;;;16.27;;
5823;SDS011;2938;52.254;12.988;2022-11-21T15:20:31;26.65;;;18.45;;
5823;SDS011;2938;52.254;12.988;2022-11-21T15:23:23;31.15;;;18.95;;
5823;SDS011;2938;52.254;12.988;2022-11-21T15:25:52;32.28;;;17.88;;
5823;SDS011;2938;52.254;12.988;2022-11-21T15:28:17;28.33;;;18.77;;
5823;SDS011;2938;52.254;12.988;2022-11-21T15:30:43;34.70;;;19.45;;
5823;SDS011;2938;52.254;12.988;2022-11-21T15:33:13;28.27;;;17.70;;
5823;SDS011;2938;52.254;12.988;2022-11-21T15:38:17;28.25;;;17.35;;
5823;SDS011;2938;52.254;12.988;2022-11-21T15:40:56;30.63;;;19.35;;
5823;SDS011;2938;52.254;12.988;2022-11-21T15:51:22;33.35;;;18.58;;
5823;SDS011;2938;52.254;12.988;2022-11-21T15:53:49;35.72;;;19.88;;
5823;SDS011;2938;52.254;12.988;2022-11-21T15:56:16;36.55;;;19.95;;
5823;SDS011;2938;52.254;12.988;2022-11-21T15:58:42;34.40;;;20.90;;
5823;SDS011;2938;52.254;12.988;2022-11-21T16:01:15;36.25;;;20.90;;
5823;SDS011;2938;52.254;12.988;2022-11-21T16:03:42;29.75;;;18.77;;
5823;SDS011;2938;52.254;12.988;2022-11-21T16:06:08;36.25;;;20.88;;
5823;SDS011;2938;52.254;12.988;2022-11-21T16:08:37;34.45;;;17.65;;
5823;SDS011;2938;52.254;12.988;2022-11-21T16:11:02;40.08;;;22.08;;
5823;SDS011;2938;52.254;12.988;2022-11-21T16:13:27;36.47;;;20.98;;
5823;SDS011;2938;52.254;12.988;2022-11-21T16:15:53;34.20;;;19.83;;
5823;SDS011;2938;52.254;12.988;2022-11-21T16:18:18;37.08;;;21.65;;
5823;SDS011;2938;52.254;12.988;2022-11-21T16:20:44;37.72;;;20.10;;
5823;SDS011;2938;52.254;12.988;2022-11-21T16:23:10;35.17;;;21.50;;
5823;SDS011;2938;52.254;12.988;2022-11-21T16:25:36;39.67;;;22.10;;
5823;SDS011;2938;52.254;12.988;2022-11-21T16:28:01;37.95;;;22.42;;
5823;SDS011;2938;52.254;12.988;2022-11-21T16:30:26;31.92;;;18.60;;
5823;SDS011;2938;52.254;12.988;2022-11-21T16:32:52;35.08;;;21.45;;
5823;SDS011;2938;52.254;12.988;2022-11-21T16:35:20;36.25;;;21.02;;
5823;SDS011;2938;52.254;12.988;2022-11-21T16:37:45;34.47;;;20.80;;
5823;SDS011;2938;52.254;12.988;2022-11-21T16:40:11;36.78;;;22.70;;
5823;SDS011;2938;52.254;12.988;2022-11-21T16:42:39;35.58;;;20.25;;
5823;SDS011;2938;52.254;12.988;2022-11-21T16:45:04;34.88;;;20.15;;
5823;SDS011;2938;52.254;12.988;2022-11-21T16:47:30;38.10;;;23.35;;
5823;SDS011;2938;52.254;12.988;2022-11-21T16:49:55;34.00;;;21.77;;
5823;SDS011;2938;52.254;12.988;2022-11-21T16:52:24;34.80;;;21.23;;
5823;SDS011;2938;52.254;12.988;2022-11-21T16:54:50;31.95;;;17.65;;
5823;SDS011;2938;52.254;12.988;2022-11-21T16:57:15;40.88;;;22.02;;
5823;SDS011;2938;52.254;12.988;2022-11-21T16:59:40;32.78;;;20.00;;